Barona (240, 974, 635) Station Data

Red Flag Warning: No
Fire Weather Zone: 250
SDGE Region: Eastern
Lat/Lon: 32.935/-116.877

Observations

Time Wind Speed/Gust Temp(F) RH Fuel Moist Fuel Temp(F) Dewpt(F) Tmax(F) Tmin(F) Accum Precip 10-min Precip SL Press(mb)
6/27 5:00pm 236 9 G 16 88° 19% - - 41° 94.3° 56.7° - - -
6/27 4:50pm 239 10 G 15 88° 19% - - 41° 94.3° 56.7° - - -
6/27 4:40pm 238 9 G 14 88° 19% - - 41° 94.3° 56.7° - - -
6/27 4:30pm 241 9 G 14 88° 20% - - 43° 94.3° 56.7° - - -
6/27 4:20pm 237 9 G 15 89° 21% - - 43° 94.3° 56.7° - - -
6/27 4:10pm 236 10 G 16 89° 21% - - 43° 94.3° 56.7° - - -
6/27 4:00pm 238 11 G 16 89° 21% - - 43° 94.3° 56.7° - - -
6/27 3:50pm 239 11 G 16 89° 21% - - 44° 94.3° 56.7° - - -
6/27 3:40pm 239 11 G 17 89° 22% - - 45° 94.3° 56.7° - - -
6/27 3:30pm 243 11 G 20 89° 21% - - 44° 94.3° 56.7° - - -
6/27 3:20pm 239 12 G 18 89° 20% - - 43° 94.3° 56.7° - - -
6/27 3:10pm 237 12 G 18 90° 20% - - 43° 94.3° 56.7° - - -
6/27 3:00pm 237 10 G 16 90° 19% - - 42° 94.3° 56.7° - - -
6/27 2:50pm 235 11 G 17 90° 18% - - 41° 94.3° 56.7° - - -
6/27 2:40pm 235 10 G 19 91° 18% - - 41° 94.3° 56.7° - - -
6/27 2:30pm 242 9 G 17 91° 17% - - 41° 94.3° 56.7° - - -
6/27 2:20pm 231 9 G 17 91° 17% - - 41° 94.3° 56.7° - - -
6/27 2:10pm 242 11 G 18 91° 18% - - 42° 94.3° 56.7° - - -
6/27 2:00pm 243 10 G 17 92° 17% - - 41° 94.3° 56.7° - - -
6/27 1:50pm 238 11 G 16 92° 17% - - 41° 94.3° 56.7° - - -
6/27 1:40pm 241 10 G 16 93° 17% - - 42° 94.3° 56.7° - - -
6/27 1:30pm 236 10 G 18 93° 17% - - 41° 94.3° 56.7° - - -
6/27 1:20pm 239 10 G 16 93° 16% - - 40° 94.3° 56.7° - - -
6/27 1:10pm 234 9 G 16 94° 13% - - 36° 94.3° 56.7° - - -
6/27 1:00pm 236 7 G 14 94° 12% - - 34° 94.3° 56.7° - - -
6/27 12:50pm 235 8 G 14 94° 12% - - 34° 94° 56.7° - - -
6/27 12:40pm 227 7 G 12 94° 12% - - 34° 93.9° 56.7° - - -
6/27 12:30pm 229 7 G 15 93° 12% - - 33° 93.6° 56.7° - - -
6/27 12:20pm 226 7 G 12 93° 12% - - 33° 93.4° 56.7° - - -
6/27 12:10pm 235 6 G 12 92° 12% - - 33° 93° 56.7° - - -
6/27 12:00pm 217 6 G 14 93° 13% - - 34° 93° 56.7° - - -
6/27 11:50am 228 7 G 12 92° 13% - - 34° 92.3° 56.7° - - -
6/27 11:40am 225 5 G 11 92° 13% - - 34° 92.2° 56.7° - - -
6/27 11:30am 233 8 G 13 91° 13% - - 33° 92.2° 56.7° - - -
6/27 11:20am 223 7 G 12 91° 11% - - 30° 92.2° 56.7° - - -
6/27 11:10am 224 7 G 11 92° 10% - - 28° 92.2° 56.7° - - -
6/27 11:00am 237 7 G 12 92° 10% - - 27° 92.1° 56.7° - - -
6/27 10:50am 229 6 G 10 91° 9% - - 26° 91.5° 56.7° - - -
6/27 10:40am 236 6 G 9 91° 10% - - 26° 91.4° 56.7° - - -
6/27 10:30am 224 6 G 9 91° 10% - - 26° 91.3° 56.7° - - -
6/27 10:20am 224 5 G 8 90° 9% - - 24° 91.1° 56.7° - - -
6/27 10:10am 227 5 G 8 90° 8% - - 21° 90.7° 56.7° - - -
6/27 10:00am 234 6 G 9 90° 8% - - 21° 90.4° 56.7° - - -
6/27 9:50am 235 6 G 10 90° 8% - - 21° 90.4° 56.7° - - -
6/27 9:40am 229 6 G 9 89° 8% - - 21° 90.4° 56.7° - - -
6/27 9:30am 227 6 G 9 89° 8% - - 19° 90.4° 56.7° - - -
6/27 9:20am 229 5 G 8 89° 8% - - 21° 90.4° 56.7° - - -
6/27 9:10am 222 5 G 7 88° 9% - - 23° 90.4° 56.7° - - -
6/27 8:50am 93 0 G 1 87° 12% - - 28° 88.7° 56.7° - - -
6/27 8:40am 48 1 G 2 85° 13% - - 29° 86.2° 56.7° - - -
6/27 8:30am 70 1 G 2 83° 14% - - 29° 83.8° 56.7° - - -
6/27 8:20am 43 1 G 2 81° 17% - - 32° 82.1° 56.7° - - -
6/27 8:10am 71 1 G 1 78° 20% - - 34° 79.3° 56.7° - - -
6/27 8:00am 91 1 G 2 76° 23% - - 35° 76.6° 56.7° - - -
6/27 7:40am 71 1 G 2 72° 26% - - 35° 72.9° 56.7° - - -
6/27 7:30am 60 1 G 2 70° 27% - - 35° 71.3° 56.7° - - -
6/27 7:20am 32 2 G 2 67° 31% - - 35° 69.2° 56.7° - - -
6/27 7:10am 70 2 G 3 65° 34% - - 36° 69.2° 56.7° - - -
6/27 7:00am 82 2 G 3 64° 36% - - 37° 69.2° 56.7° - - -
6/27 6:50am 76 1 G 2 63° 36% - - 36° 69.2° 56.7° - - -
6/27 6:40am 65 1 G 2 61° 39% - - 36° 69.2° 56.7° - - -
6/27 6:30am 88 1 G 2 60° 43% - - 37° 69.2° 56.7° - - -
6/27 6:20am 53 2 G 3 60° 41% - - 36° 69.2° 56.7° - - -
6/27 6:10am 0 2 G 3 58° 42% - - 35° 69.2° 56.7° - - -
6/27 6:00am 62 1 G 2 57° 45% - - 36° 69.2° 56.7° - - -
6/27 5:50am 90 1 G 2 57° 45% - - 36° 69.2° 56.8° - - -
6/27 5:40am 72 1 G 2 58° 43% - - 36° 69.2° 57.4° - - -
6/27 5:30am 44 1 G 2 58° 41% - - 35° 69.2° 57.4° - - -
6/27 5:20am 8 2 G 2 58° 42% - - 35° 69.2° 57.4° - - -
6/27 5:10am 79 1 G 2 58° 43% - - 35° 69.2° 57.4° - - -
6/27 5:00am 93 1 G 2 58° 43% - - 36° 69.2° 57.4° - - -
6/27 4:50am 4 2 G 3 59° 38% - - 34° 69.2° 58.6° - - -
6/27 4:40am 44 1 G 3 59° 41% - - 35° 69.2° 58.6° - - -
6/27 4:30am 90 1 G 2 59° 42% - - 36° 69.2° 59° - - -
6/27 4:20am 125 1 G 2 59° 42% - - 36° 69.2° 59° - - -
6/27 4:10am 238 0 G 1 60° 40% - - 36° 69.2° 59.4° - - -
6/27 4:00am 34 1 G 2 61° 39% - - 36° 69.2° 59.9° - - -
6/27 3:50am 50 0 G 2 60° 39% - - 35° 69.2° 59.9° - - -
6/27 3:40am 121 1 G 2 60° 41% - - 36° 69.2° 59.9° - - -
6/27 3:30am 95 1 G 2 62° 39% - - 37° 69.2° 60.6° - - -
6/27 3:20am 56 1 G 3 62° 36% - - 35° 69.2° 61.3° - - -
6/27 3:10am 31 1 G 2 62° 37% - - 35° 69.2° 61.3° - - -
6/27 3:00am 96 1 G 2 61° 40% - - 37° 69.2° 61.3° - - -
6/27 2:50am 97 1 G 2 62° 38% - - 36° 69.2° 61.7° - - -
6/27 2:40am 20 1 G 2 63° 33% - - 34° 69.2° 61.7° - - -
6/27 2:30am 1 1 G 2 63° 35% - - 35° 69.2° 61.7° - - -
6/27 2:20am 354 0 G 1 62° 36% - - 35° 69.2° 61.7° - - -
6/27 2:10am 106 0 G 1 62° 35% - - 34° 69.2° 61.7° - - -
6/27 2:00am 150 1 G 2 63° 35% - - 35° 69.2° 62.2° - - -
6/27 1:50am 348 1 G 2 64° 30% - - 32° 69.2° 63.3° - - -
6/27 1:40am 173 0 G 2 64° 34% - - 35° 69.2° 63.3° - - -
6/27 1:30am 124 1 G 1 64° 35% - - 36° 69.2° 63.9° - - -
6/27 1:20am 150 0 G 1 65° 32% - - 34° 69.2° 64.2° - - -
6/27 1:10am 169 1 G 2 65° 31% - - 34° 69.2° 64.7° - - -
6/27 1:00am 101 1 G 2 66° 30% - - 34° 69.2° 65.3° - - -
6/27 12:50am 86 1 G 2 66° 30% - - 33° 69.2° 65.3° - - -
6/27 12:40am 95 2 G 2 66° 31% - - 34° 69.2° 65.3° - - -
6/27 12:30am 114 1 G 2 67° 34% - - 37° 69.2° 65.6° - - -
6/27 12:20am 9 1 G 2 69° 28% - - 34° 69.2° 67.9° - - -
6/27 12:10am 19 1 G 2 69° 27% - - 34° 69.1° 68.1° - - -
6/27 12:00am 337 0 G 1 68° 28% - - 34° 101.8° 62.3° - - -
6/26 11:50pm 68 1 G 3 68° 28% - - 34° 101.8° 62.3° - - -
6/26 11:40pm 113 1 G 3 69° 27% - - 33° 101.8° 62.3° - - -
6/26 11:30pm 102 0 G 2 68° 28% - - 34° 101.8° 62.3° - - -
6/26 11:20pm 139 1 G 2 70° 27% - - 35° 101.8° 62.3° - - -
6/26 11:10pm 3 2 G 4 71° 24% - - 33° 101.8° 62.3° - - -
6/26 11:00pm 45 2 G 3 71° 22% - - 30° 101.8° 62.3° - - -
6/26 10:50pm 357 2 G 3 71° 25% - - 33° 101.8° 62.3° - - -
6/26 10:40pm 156 1 G 2 70° 26% - - 34° 101.8° 62.3° - - -
6/26 10:30pm 199 1 G 3 71° 24% - - 33° 101.8° 62.3° - - -
6/26 10:20pm 163 0 G 2 72° 24% - - 33° 101.8° 62.3° - - -
6/26 10:10pm 343 0 G 1 72° 23% - - 33° 101.8° 62.3° - - -
6/26 10:00pm 202 1 G 2 73° 24% - - 34° 101.8° 62.3° - - -
6/26 9:50pm 187 1 G 1 74° 24% - - 35° 101.8° 62.3° - - -
6/26 9:40pm 162 1 G 2 76° 21% - - 33° 101.8° 62.3° - - -
6/26 9:30pm 100 1 G 2 77° 18% - - 30° 101.8° 62.3° - - -
6/26 9:20pm 11 0 G 2 77° 20% - - 32° 101.8° 62.3° - - -
6/26 9:10pm 148 1 G 2 79° 19% - - 32° 101.8° 62.3° - - -
6/26 9:00pm 124 0 G 2 81° 17% - - 31° 101.8° 62.3° - - -
6/26 8:50pm 359 1 G 2 82° 14% - - 28° 101.8° 62.3° - - -
6/26 8:40pm 105 1 G 3 82° 16% - - 32° 101.8° 62.3° - - -
6/26 8:30pm 147 1 G 1 84° 15% - - 31° 101.8° 62.3° - - -
6/26 8:20pm 331 0 G 4 84° 14% - - 29° 101.8° 62.3° - - -
6/26 8:10pm 215 0 G 1 85° 14% - - 31° 101.8° 62.3° - - -
6/26 8:00pm 324 1 G 4 87° 13% - - 29° 101.8° 62.3° - - -
6/26 7:50pm 333 3 G 5 89° 11% - - 28° 101.8° 62.3° - - -
6/26 7:40pm 331 3 G 6 89° 11% - - 28° 101.8° 62.3° - - -
6/26 7:30pm 323 3 G 7 90° 11% - - 28° 101.8° 62.3° - - -
6/26 7:20pm 346 4 G 7 91° 11% - - 29° 101.8° 62.3° - - -
6/26 7:10pm 342 5 G 7 92° 10% - - 29° 101.8° 62.3° - - -
6/26 7:00pm 328 3 G 5 93° 10% - - 28° 101.8° 62.3° - - -
6/26 6:50pm 343 2 G 6 94° 9% - - 27° 101.8° 62.3° - - -
6/26 6:40pm 248 3 G 7 94° 9% - - 27° 101.8° 62.3° - - -
6/26 6:30pm 259 2 G 6 95° 8% - - 24° 101.8° 62.3° - - -
6/26 6:20pm 252 3 G 6 96° 9% - - 27° 101.8° 62.3° - - -
6/26 6:10pm 280 3 G 8 96° 8% - - 24° 101.8° 62.3° - - -
6/26 6:00pm 208 6 G 13 96° 9% - - 28° 101.8° 62.3° - - -
6/26 5:50pm 231 5 G 13 97° 9% - - 29° 101.8° 62.3° - - -
6/26 5:40pm 218 7 G 13 97° 9% - - 29° 101.8° 62.3° - - -
6/26 5:30pm 243 5 G 12 98° 8% - - 26° 101.8° 62.3° - - -
6/26 5:20pm 269 4 G 10 99° 7% - - 25° 101.8° 62.3° - - -
6/26 5:10pm 258 5 G 11 99° 7% - - 24° 101.8° 62.3° - - -
6/26 5:00pm 256 5 G 10 99° 7% - - 25° 101.8° 62.3° - - -
6/26 4:50pm 259 6 G 13 99° 7% - - 24° 101.8° 62.3° - - -
6/26 4:40pm 261 5 G 11 100° 7% - - 23° 101.8° 62.3° - - -
6/26 4:30pm 226 8 G 14 99° 7% - - 24° 101.8° 62.3° - - -
6/26 4:20pm 222 9 G 14 99° 7% - - 25° 101.8° 62.3° - - -
6/26 4:10pm 220 9 G 17 99° 7% - - 26° 101.8° 62.3° - - -
6/26 4:00pm 221 9 G 14 100° 8% - - 27° 101.8° 62.3° - - -
6/26 3:50pm 248 6 G 12 101° 7% - - 26° 101.8° 62.3° - - -
6/26 3:40pm 239 6 G 12 101° 8% - - 27° 101.8° 62.3° - - -
6/26 3:30pm 259 4 G 11 101° 7% - - 25° 101.8° 62.3° - - -
6/26 3:20pm 252 6 G 13 101° 8% - - 28° 101.5° 62.3° - - -
6/26 3:10pm 223 9 G 15 99° 9% - - 31° 100° 62.3° - - -
6/26 3:00pm 225 10 G 17 99° 10% - - 32° 99.9° 62.3° - - -
6/26 2:50pm 230 10 G 16 99° 9% - - 31° 99.9° 62.3° - - -
6/26 2:40pm 232 8 G 13 99° 10% - - 33° 99.7° 62.3° - - -
6/26 2:30pm 235 9 G 14 99° 11% - - 35° 99.3° 62.3° - - -
6/26 2:20pm 227 8 G 14 98° 11% - - 35° 99.2° 62.3° - - -
6/26 2:10pm 232 8 G 12 98° 12% - - 36° 98.5° 62.3° - - -
6/26 2:00pm 230 9 G 13 98° 12% - - 36° 98.2° 62.3° - - -
6/26 1:50pm 231 9 G 13 98° 12% - - 37° 97.9° 62.3° - - -
6/26 1:40pm 231 8 G 14 97° 13% - - 38° 97.4° 62.3° - - -
6/26 1:30pm 227 9 G 14 97° 14% - - 39° 97.4° 62.3° - - -
6/26 1:20pm 235 10 G 16 97° 15% - - 41° 97.4° 62.3° - - -
6/26 1:10pm 231 9 G 16 97° 15% - - 41° 97° 62.3° - - -
6/26 1:00pm 237 9 G 13 97° 16% - - 42° 97° 62.3° - - -
6/26 12:50pm 233 10 G 14 96° 17% - - 44° 96.6° 62.3° - - -
6/26 12:40pm 236 8 G 13 96° 19% - - 47° 96.6° 62.3° - - -
6/26 12:30pm 228 8 G 14 95° 20% - - 48° 96° 62.3° - - -
6/26 12:20pm 224 8 G 14 95° 19% - - 47° 96° 62.3° - - -
6/26 12:10pm 228 8 G 15 96° 19% - - 47° 95.8° 62.3° - - -
6/26 12:00pm 233 9 G 14 95° 18% - - 45° 95.6° 62.3° - - -
6/26 11:50am 231 9 G 14 95° 19% - - 46° 95.6° 62.3° - - -
6/26 11:40am 234 9 G 13 95° 17% - - 43° 95.6° 62.3° - - -
6/26 11:30am 234 8 G 13 94° 17% - - 42° 95.6° 62.3° - - -
6/26 11:20am 233 8 G 11 94° 15% - - 39° 95.6° 62.3° - - -
6/26 11:10am 236 8 G 12 94° 14% - - 38° 95.6° 62.3° - - -
6/26 11:00am 234 8 G 11 94° 14% - - 38° 95.6° 62.3° - - -
6/26 10:50am 229 8 G 11 94° 13% - - 37° 95.6° 62.3° - - -
6/26 10:40am 230 7 G 11 93° 13% - - 35° 95.6° 62.3° - - -
6/26 10:30am 232 8 G 11 93° 12% - - 33° 95.6° 62.3° - - -
6/26 10:20am 238 8 G 10 93° 12% - - 32° 95.6° 62.3° - - -
6/26 10:10am 233 8 G 11 92° 13% - - 33° 95.6° 62.3° - - -
6/26 10:00am 239 6 G 10 92° 12% - - 33° 95.6° 62.3° - - -
6/26 9:50am 214 6 G 9 91° 13% - - 34° 95.6° 62.3° - - -
6/26 9:40am 216 6 G 8 92° 15% - - 37° 95.6° 62.3° - - -
6/26 9:30am 212 5 G 7 93° 15% - - 39° 95.6° 62.3° - - -
6/26 9:20am 212 4 G 6 92° 15% - - 38° 95.6° 62.3° - - -
6/26 9:10am 205 2 G 5 95° 14% - - 37° 95.6° 62.3° - - -
6/26 9:00am 30 0 G 1 93° 15% - - 38° 94.5° 62.3° - - -
6/26 8:50am 112 0 G 1 91° 17% - - 40° 92.6° 62.3° - - -
6/26 8:40am 83 1 G 2 88° 19% - - 40° 89.3° 62.3° - - -
6/26 8:30am 82 1 G 2 86° 19% - - 40° 87.4° 62.3° - - -
6/26 8:20am 59 1 G 2 84° 21% - - 40° 85.3° 62.3° - - -
6/26 8:10am 58 1 G 2 81° 26% - - 42° 82.1° 62.3° - - -
6/26 8:00am 77 1 G 2 78° 30% - - 43° 79.3° 62.3° - - -
6/26 7:50am 104 1 G 2 75° 33% - - 44° 76.2° 62.3° - - -
6/26 7:40am 103 2 G 3 74° 34% - - 44° 74.3° 62.3° - - -
6/26 7:30am 74 2 G 3 73° 35% - - 44° 73.7° 62.3° - - -
6/26 7:20am 56 2 G 3 72° 37% - - 44° 72.4° 62.3° - - -
6/26 7:10am 46 1 G 3 70° 40% - - 45° 72.3° 62.3° - - -
6/26 7:00am 52 1 G 2 68° 44% - - 45° 72.3° 62.3° - - -
6/26 6:50am 107 2 G 3 66° 48% - - 46° 72.3° 62.3° - - -
6/26 6:40am 44 3 G 4 67° 45% - - 45° 72.3° 62.3° - - -
6/26 6:30am 76 1 G 2 65° 50% - - 46° 72.3° 62.3° - - -
6/26 6:20am 101 1 G 2 64° 52% - - 46° 72.3° 62.3° - - -
6/26 6:10am 98 0 G 1 63° 52% - - 45° 72.3° 62.3° - - -
6/26 6:00am 90 1 G 2 63° 52% - - 45° 72.3° 62.3° - - -